createdAt,value
2019-04-26T00:01:24.725Z,71.80
2019-04-26T00:03:54.724Z,71.80
2019-04-26T00:06:24.958Z,71.80
2019-04-26T00:09:05.621Z,71.80
2019-04-26T00:11:45.108Z,71.90
2019-04-26T00:14:16.556Z,72.00
2019-04-26T00:16:57.181Z,72.00
2019-04-26T00:19:27.325Z,72.00
2019-04-26T00:21:57.408Z,72.10
2019-04-26T00:24:28.564Z,72.30
2019-04-26T00:26:59.492Z,72.50
2019-04-26T00:29:29.366Z,72.60
2019-04-26T00:31:59.161Z,72.80
2019-04-26T00:34:28.933Z,72.60
2019-04-26T00:36:58.655Z,72.60
2019-04-26T00:39:28.495Z,72.70
2019-04-26T00:41:58.718Z,72.60
2019-04-26T00:44:28.589Z,72.70
2019-04-26T00:47:01.087Z,72.70
2019-04-26T00:49:42.958Z,73.00
2019-04-26T00:52:04.354Z,73.00
2019-04-26T00:54:35.001Z,73.00
2019-04-26T00:57:05.006Z,72.70
2019-04-26T00:59:37.738Z,73.00
2019-04-26T01:02:09.219Z,73.20
2019-04-26T01:04:39.057Z,73.00
2019-04-26T01:07:08.855Z,73.00
2019-04-26T01:09:38.643Z,72.90
2019-04-26T01:12:08.437Z,72.90
2019-04-26T01:14:39.211Z,73.10
2019-04-26T01:17:09.036Z,73.20
2019-04-26T01:19:40.957Z,73.50
2019-04-26T01:22:13.666Z,73.40
2019-04-26T01:24:45.372Z,73.50
2019-04-26T01:27:18.455Z,73.50
2019-04-26T01:29:53.343Z,73.50
2019-04-26T01:32:24.140Z,73.80
2019-04-26T01:34:55.099Z,73.60
2019-04-26T01:37:24.872Z,73.80
2019-04-26T01:40:00.182Z,73.90
2019-04-26T01:42:32.723Z,74.00
2019-04-26T01:45:09.039Z,74.10
2019-04-26T01:47:39.733Z,74.40
2019-04-26T01:50:10.833Z,74.70
2019-04-26T01:52:43.749Z,74.70
2019-04-26T01:55:14.272Z,74.60
2019-04-26T01:57:44.171Z,74.80
2019-04-26T02:00:16.491Z,74.90
2019-04-26T02:02:47.870Z,74.70
2019-04-26T02:05:22.598Z,74.70
2019-04-26T02:07:52.904Z,74.70
2019-04-26T02:10:25.202Z,74.60
2019-04-26T02:12:56.980Z,74.90
2019-04-26T02:15:29.780Z,75.00
2019-04-26T02:18:00.602Z,75.10
2019-04-26T02:20:52.923Z,75.20
2019-04-26T02:23:25.162Z,75.10
2019-04-26T02:25:55.963Z,75.20
2019-04-26T02:28:26.713Z,75.20
2019-04-26T02:30:56.635Z,75.40
2019-04-26T02:33:27.451Z,75.60
2019-04-26T02:35:59.012Z,75.60
2019-04-26T02:38:31.433Z,75.60
2019-04-26T02:41:01.340Z,75.60
2019-04-26T02:43:33.220Z,75.60
2019-04-26T02:46:05.899Z,75.70
2019-04-26T02:48:43.377Z,75.70
2019-04-26T02:51:28.709Z,75.70
2019-04-26T02:54:01.726Z,75.60
2019-04-26T02:56:43.076Z,75.70
2019-04-26T02:59:32.356Z,75.70
2019-04-26T03:02:04.318Z,75.80
2019-04-26T03:04:39.563Z,76.70
2019-04-26T03:07:12.459Z,76.00
2019-04-26T03:09:45.444Z,75.90
2019-04-26T03:12:17.643Z,76.10
2019-04-26T03:15:12.661Z,76.00
2019-04-26T03:17:38.139Z,76.10
2019-04-26T03:20:14.963Z,76.00
2019-04-26T03:23:08.771Z,76.30
2019-04-26T03:25:50.062Z,76.60
2019-04-26T03:28:41.642Z,77.00
2019-04-26T03:31:26.066Z,77.00
2019-04-26T03:34:02.732Z,77.00
2019-04-26T03:36:40.604Z,77.10
2019-04-26T03:39:17.018Z,77.20
2019-04-26T03:42:02.898Z,77.10
2019-04-26T03:44:40.419Z,77.10
2019-04-26T03:47:12.894Z,77.00
2019-04-26T03:49:54.340Z,77.10
2019-04-26T03:52:45.754Z,77.00
2019-04-26T03:55:29.061Z,77.20
2019-04-26T03:58:29.122Z,77.10
2019-04-26T04:01:03.194Z,77.30
2019-04-26T04:03:43.478Z,77.50
2019-04-26T04:06:16.042Z,77.50
2019-04-26T04:08:51.527Z,77.60
2019-04-26T04:11:24.364Z,77.60
2019-04-26T04:13:57.151Z,77.70
2019-04-26T04:16:41.311Z,77.90
2019-04-26T04:19:31.624Z,77.80
2019-04-26T04:22:10.809Z,77.70
2019-04-26T04:24:45.420Z,78.10
2019-04-26T04:27:20.655Z,78.10
2019-04-26T04:29:55.530Z,78.00
2019-04-26T04:32:30.478Z,78.00
2019-04-26T04:35:06.482Z,78.00
2019-04-26T04:37:54.936Z,78.10
2019-04-26T04:40:19.445Z,78.00
2019-04-26T04:43:00.071Z,77.90
2019-04-26T04:46:09.363Z,78.10
2019-04-26T04:49:14.239Z,78.20
2019-04-26T04:52:08.004Z,78.40
2019-04-26T04:55:06.613Z,79.40
2019-04-26T04:57:54.927Z,78.40
2019-04-26T05:00:47.206Z,78.60
2019-04-26T05:03:27.277Z,78.90
2019-04-26T05:06:10.221Z,79.70
2019-04-26T05:09:00.533Z,78.80
2019-04-26T05:11:52.002Z,78.70
2019-04-26T05:14:43.691Z,78.60
2019-04-26T05:17:23.512Z,78.80
2019-04-26T05:20:14.161Z,78.60
2019-04-26T05:22:55.554Z,78.70
2019-04-26T05:25:58.619Z,78.80
2019-04-26T05:28:46.188Z,78.80
2019-04-26T05:31:26.419Z,79.30
2019-04-26T05:34:02.743Z,79.30
2019-04-26T05:36:38.259Z,79.40
2019-04-26T05:39:10.579Z,79.30
2019-04-26T05:41:51.548Z,79.30
2019-04-26T05:44:35.305Z,79.60
2019-04-26T05:47:24.678Z,79.20
2019-04-26T05:50:23.354Z,80.10
2019-04-26T05:53:06.697Z,79.20
2019-04-26T05:56:09.787Z,79.30
2019-04-26T05:58:52.901Z,79.40
2019-04-26T06:02:05.361Z,79.40
2019-04-26T06:04:48.255Z,79.40
2019-04-26T06:07:37.900Z,79.70
2019-04-26T06:10:37.668Z,79.40
2019-04-26T06:13:20.736Z,79.50
2019-04-26T06:16:03.841Z,79.50
2019-04-26T06:19:01.984Z,79.60
2019-04-26T06:21:37.810Z,79.60
2019-04-26T06:24:37.680Z,79.60
2019-04-26T06:27:32.463Z,79.50
2019-04-26T06:30:10.809Z,79.50
2019-04-26T06:32:55.947Z,79.30
2019-04-26T06:35:21.040Z,79.50
2019-04-26T06:38:18.479Z,80.40
2019-04-26T06:41:27.494Z,79.60
2019-04-26T06:44:11.016Z,79.50
2019-04-26T06:47:07.199Z,79.60
2019-04-26T06:50:11.979Z,80.00
2019-04-26T06:53:11.974Z,80.30
2019-04-26T06:55:54.977Z,80.10
2019-04-26T06:58:39.659Z,79.60
2019-04-26T07:01:20.169Z,79.50
2019-04-26T07:03:58.179Z,79.20
2019-04-26T07:06:39.581Z,78.50
2019-04-26T07:09:11.642Z,77.90
2019-04-26T07:13:59.169Z,78.50
2019-04-26T07:16:46.182Z,80.10
2019-04-26T07:20:04.536Z,76.60
2019-04-26T07:23:13.068Z,71.30
2019-04-26T07:25:47.436Z,65.90
2019-04-26T07:28:38.351Z,63.20
2019-04-26T07:31:31.970Z,61.80
2019-04-26T07:34:15.366Z,60.30
2019-04-26T07:37:11.387Z,59.20
2019-04-26T07:40:09.200Z,58.70
2019-04-26T07:42:49.301Z,58.50
2019-04-26T07:45:46.335Z,57.90
2019-04-26T07:48:24.818Z,56.40
2019-04-26T07:51:11.533Z,55.20
2019-04-26T07:53:50.291Z,55.00
2019-04-26T07:56:35.004Z,54.90
2019-04-26T07:59:36.517Z,54.30
2019-04-26T08:02:16.712Z,53.40
2019-04-26T08:04:58.202Z,52.80
2019-04-26T08:07:30.970Z,52.40
2019-04-26T08:10:07.765Z,51.90
2019-04-26T08:12:40.546Z,51.50
2019-04-26T08:15:15.680Z,51.50
2019-04-26T08:17:58.809Z,51.60
2019-04-26T08:20:38.791Z,51.30
2019-04-26T08:23:28.181Z,51.20
2019-04-26T08:25:46.171Z,51.10
2019-04-26T08:28:18.254Z,50.90
2019-04-26T08:30:52.541Z,50.60
2019-04-26T08:33:26.843Z,50.00
2019-04-26T08:35:58.387Z,50.30
2019-04-26T08:38:29.965Z,50.20
2019-04-26T08:41:00.370Z,50.00
2019-04-26T08:43:43.624Z,50.10
2019-04-26T08:46:28.313Z,49.90
2019-04-26T08:49:06.915Z,49.80
2019-04-26T08:51:39.147Z,49.80
2019-04-26T08:54:11.888Z,49.80
2019-04-26T08:56:44.589Z,50.00
2019-04-26T08:59:20.132Z,50.10
2019-04-26T09:01:53.341Z,49.80
2019-04-26T09:04:32.890Z,49.80
2019-04-26T09:07:09.767Z,49.50
2019-04-26T09:09:42.150Z,49.30
2019-04-26T09:12:22.846Z,49.10
2019-04-26T09:14:49.253Z,48.90
2019-04-26T09:17:19.084Z,48.50
2019-04-26T09:19:49.232Z,48.30
2019-04-26T09:22:27.737Z,48.20
2019-04-26T09:25:00.700Z,48.20
2019-04-26T09:27:38.423Z,48.20
2019-04-26T09:30:14.000Z,48.10
2019-04-26T09:32:45.383Z,47.80
2019-04-26T09:35:16.330Z,47.60
2019-04-26T09:37:47.172Z,47.40
2019-04-26T09:40:21.739Z,47.30
2019-04-26T09:42:53.490Z,47.30
2019-04-26T09:45:30.668Z,47.70
2019-04-26T09:48:04.778Z,47.00
2019-04-26T09:50:41.985Z,46.80
2019-04-26T09:53:11.694Z,46.50
2019-04-26T09:55:41.468Z,45.80
2019-04-26T09:58:11.299Z,45.40
2019-04-26T10:00:44.194Z,45.70
2019-04-26T10:03:12.639Z,46.00
2019-04-26T10:05:43.226Z,46.20
2019-04-26T10:08:14.526Z,46.10
2019-04-26T10:10:44.488Z,46.10
2019-04-26T10:13:18.606Z,46.10
2019-04-26T10:15:53.019Z,46.00
2019-04-26T10:18:24.417Z,45.70
2019-04-26T10:20:54.303Z,45.60
2019-04-26T10:23:24.022Z,45.60
2019-04-26T10:25:53.794Z,45.70
2019-04-26T10:28:23.900Z,45.70
2019-04-26T10:30:53.759Z,45.70
2019-04-26T10:33:23.571Z,45.70
2019-04-26T10:35:56.667Z,45.70
2019-04-26T10:38:25.480Z,45.80
2019-04-26T10:40:55.299Z,45.80
2019-04-26T10:43:25.059Z,45.80
2019-04-26T10:45:55.109Z,45.80
2019-04-26T10:48:25.051Z,45.90
2019-04-26T10:50:54.747Z,46.00
2019-04-26T10:53:30.229Z,46.10
2019-04-26T10:56:04.986Z,46.10
2019-04-26T10:58:37.759Z,46.10
2019-04-26T11:01:10.843Z,46.20
2019-04-26T11:03:40.659Z,46.20
2019-04-26T11:06:10.394Z,46.40
2019-04-26T11:08:40.174Z,46.30
2019-04-26T11:11:10.135Z,46.40
2019-04-26T11:13:39.875Z,46.70
2019-04-26T11:16:09.602Z,46.70
2019-04-26T11:18:39.376Z,46.60
2019-04-26T11:21:09.106Z,48.10
2019-04-26T11:23:41.005Z,49.10
2019-04-26T11:26:10.366Z,49.90
2019-04-26T11:28:42.028Z,50.70
2019-04-26T11:31:11.550Z,50.00
2019-04-26T11:33:44.920Z,49.30
2019-04-26T11:36:13.428Z,48.80
2019-04-26T11:38:43.169Z,48.60
2019-04-26T11:41:12.855Z,48.70
2019-04-26T11:43:42.682Z,48.90
2019-04-26T11:46:12.421Z,49.50
2019-04-26T11:48:42.115Z,50.10
2019-04-26T11:51:11.836Z,50.50
2019-04-26T11:53:44.777Z,50.60
2019-04-26T11:56:13.169Z,50.60
2019-04-26T11:58:42.948Z,50.60
2019-04-26T12:01:14.350Z,51.00
2019-04-26T12:03:45.820Z,51.10
2019-04-26T12:06:17.208Z,51.00
2019-04-26T12:08:51.414Z,51.10
2019-04-26T12:11:30.376Z,51.50
2019-04-26T12:13:55.455Z,51.70
2019-04-26T12:16:23.906Z,51.70
2019-04-26T12:18:53.726Z,51.70
2019-04-26T12:21:23.510Z,51.70
2019-04-26T12:23:55.594Z,51.60
2019-04-26T12:26:24.685Z,51.50
2019-04-26T12:28:54.326Z,51.50
2019-04-26T12:31:24.034Z,51.60
2019-04-26T12:33:53.765Z,51.70
2019-04-26T12:36:23.466Z,51.60
2019-04-26T12:38:54.272Z,51.50
2019-04-26T12:41:39.499Z,51.10
2019-04-26T12:43:59.690Z,50.60
2019-04-26T12:46:40.751Z,50.30
2019-04-26T12:49:10.908Z,50.10
2019-04-26T12:51:42.759Z,49.70
2019-04-26T12:54:12.100Z,49.20
2019-04-26T12:56:41.867Z,48.50
2019-04-26T12:59:11.712Z,47.80
2019-04-26T13:01:42.656Z,46.70
2019-04-26T13:04:12.972Z,46.10
2019-04-26T13:06:56.367Z,45.80
2019-04-26T13:09:26.877Z,45.50
2019-04-26T13:12:17.567Z,44.30
2019-04-26T13:15:07.119Z,44.40
2019-04-26T13:17:44.511Z,44.60
2019-04-26T13:20:14.387Z,44.90
2019-04-26T13:22:46.253Z,45.00
2019-04-26T13:25:24.739Z,45.40
2019-04-26T13:27:47.043Z,46.00
2019-04-26T13:30:16.838Z,46.00
2019-04-26T13:32:49.161Z,46.10
2019-04-26T13:35:18.205Z,46.60
2019-04-26T13:37:47.990Z,47.00
2019-04-26T13:40:17.738Z,47.10
2019-04-26T13:42:51.332Z,47.10
2019-04-26T13:45:38.586Z,46.90
2019-04-26T13:48:25.246Z,46.90
2019-04-26T13:51:02.457Z,47.00
2019-04-26T13:53:33.808Z,47.10
2019-04-26T13:56:03.604Z,47.10
2019-04-26T13:58:33.726Z,47.30
2019-04-26T14:01:04.112Z,47.70
2019-04-26T14:03:34.043Z,47.80
2019-04-26T14:06:03.706Z,47.80
2019-04-26T14:08:33.576Z,47.70
2019-04-26T14:11:03.290Z,47.80
2019-04-26T14:13:33.151Z,49.00
2019-04-26T14:16:03.347Z,49.70
2019-04-26T14:18:34.616Z,50.40
2019-04-26T14:21:04.471Z,50.40
2019-04-26T14:23:38.986Z,50.40
2019-04-26T14:26:22.787Z,49.70
2019-04-26T14:28:54.397Z,49.10
2019-04-26T14:31:23.838Z,48.70
2019-04-26T14:33:53.739Z,48.60
2019-04-26T14:36:26.733Z,48.60
2019-04-26T14:39:05.272Z,49.00
2019-04-26T14:41:26.230Z,49.30
2019-04-26T14:43:56.753Z,49.30
2019-04-26T14:46:26.834Z,48.80
2019-04-26T14:49:02.765Z,48.30
2019-04-26T14:51:27.997Z,48.00
2019-04-26T14:53:57.761Z,47.60
2019-04-26T14:56:29.376Z,47.30
2019-04-26T14:59:01.839Z,47.40
2019-04-26T15:01:42.402Z,47.40
2019-04-26T15:04:30.314Z,47.10
2019-04-26T15:07:02.019Z,46.90
2019-04-26T15:09:35.825Z,46.80
2019-04-26T15:12:03.542Z,46.90
2019-04-26T15:14:33.387Z,47.00
2019-04-26T15:17:03.690Z,47.10
2019-04-26T15:19:35.157Z,47.30
2019-04-26T15:22:10.256Z,47.00
2019-04-26T15:24:38.574Z,47.00
2019-04-26T15:27:07.695Z,47.10
2019-04-26T15:29:37.471Z,47.20
2019-04-26T15:32:07.194Z,47.50
2019-04-26T15:34:38.021Z,47.70
2019-04-26T15:37:07.738Z,47.80
2019-04-26T15:39:39.173Z,47.80
2019-04-26T15:42:29.306Z,47.80
2019-04-26T15:45:06.208Z,47.80
2019-04-26T15:47:54.074Z,47.90
2019-04-26T15:50:31.411Z,48.10
2019-04-26T15:53:02.517Z,48.30
2019-04-26T15:55:46.032Z,48.40
2019-04-26T15:58:15.728Z,48.40
2019-04-26T16:00:45.629Z,48.50
2019-04-26T16:03:15.581Z,48.50
2019-04-26T16:05:46.437Z,48.50
2019-04-26T16:08:16.202Z,48.60
2019-04-26T16:10:46.046Z,48.70
2019-04-26T16:13:20.725Z,48.70
2019-04-26T16:15:48.712Z,48.80
2019-04-26T16:18:19.175Z,48.90
2019-04-26T16:20:50.078Z,48.90
2019-04-26T16:23:22.415Z,49.00
2019-04-26T16:25:52.640Z,49.10
2019-04-26T16:28:25.147Z,49.20
2019-04-26T16:30:59.686Z,49.30
2019-04-26T16:33:47.169Z,49.20
2019-04-26T16:36:16.970Z,49.30
2019-04-26T16:38:48.655Z,49.40
2019-04-26T16:41:21.758Z,49.40
2019-04-26T16:43:53.205Z,49.50
2019-04-26T16:46:23.093Z,49.60
2019-04-26T16:48:55.516Z,49.80
2019-04-26T16:51:23.564Z,49.60
2019-04-26T16:54:06.869Z,49.60
2019-04-26T16:56:26.551Z,49.70
2019-04-26T16:58:56.857Z,49.70
2019-04-26T17:01:26.753Z,49.80
2019-04-26T17:03:56.480Z,49.80
2019-04-26T17:06:26.163Z,49.90
2019-04-26T17:09:45.791Z,49.80
2019-04-26T17:11:30.293Z,50.50
2019-04-26T17:14:04.102Z,49.90
2019-04-26T17:16:34.765Z,50.00
2019-04-26T17:19:04.020Z,50.00
2019-04-26T17:21:35.399Z,50.00
2019-04-26T17:24:15.914Z,50.00
2019-04-26T17:26:53.102Z,49.90
2019-04-26T17:29:22.827Z,49.90
2019-04-26T17:31:52.588Z,49.90
2019-04-26T17:34:28.873Z,49.90
2019-04-26T17:36:53.774Z,49.90
2019-04-26T17:39:23.542Z,50.00
2019-04-26T17:41:54.418Z,50.00
2019-04-26T17:44:26.687Z,50.70
2019-04-26T17:46:56.890Z,49.90
2019-04-26T17:49:28.744Z,49.90
2019-04-26T17:51:59.874Z,50.00
2019-04-26T17:54:43.797Z,49.90
2019-04-26T17:57:04.460Z,50.00
2019-04-26T17:59:34.563Z,49.90
2019-04-26T18:02:04.381Z,50.00
2019-04-26T18:04:37.055Z,49.90
2019-04-26T18:07:33.911Z,50.00
2019-04-26T18:09:43.299Z,49.90
2019-04-26T18:12:08.392Z,49.90
2019-04-26T18:14:38.259Z,49.90
2019-04-26T18:17:12.316Z,49.90
2019-04-26T18:19:43.708Z,50.00
2019-04-26T18:22:15.065Z,49.90
2019-04-26T18:24:45.065Z,49.90
2019-04-26T18:27:14.865Z,49.90
2019-04-26T18:29:45.724Z,49.90
2019-04-26T18:32:15.894Z,49.90
2019-04-26T18:34:45.534Z,50.00
2019-04-26T18:37:15.299Z,50.00
2019-04-26T18:39:45.043Z,49.90
2019-04-26T18:42:14.950Z,49.90
2019-04-26T18:44:48.070Z,49.90
2019-04-26T18:47:20.506Z,49.90
2019-04-26T18:49:52.070Z,49.90
2019-04-26T18:52:23.375Z,49.80
2019-04-26T18:54:56.857Z,49.80
2019-04-26T18:57:26.682Z,49.90
2019-04-26T18:59:56.564Z,49.80
2019-04-26T19:02:28.099Z,50.40
2019-04-26T19:04:57.754Z,49.90
2019-04-26T19:07:32.371Z,49.90
2019-04-26T19:10:02.932Z,49.90
2019-04-26T19:12:30.537Z,50.00
2019-04-26T19:15:05.997Z,49.90
2019-04-26T19:17:38.004Z,49.90
2019-04-26T19:20:18.661Z,49.90
2019-04-26T19:22:56.175Z,49.80
2019-04-26T19:25:29.964Z,49.80
2019-04-26T19:27:58.911Z,49.90
2019-04-26T19:30:29.117Z,49.90
2019-04-26T19:32:58.942Z,49.90
2019-04-26T19:35:29.756Z,49.80
2019-04-26T19:37:59.528Z,49.80
2019-04-26T19:40:29.315Z,49.70
2019-04-26T19:43:03.184Z,49.70
2019-04-26T19:45:35.567Z,49.80
2019-04-26T19:48:19.159Z,49.70
2019-04-26T19:50:48.968Z,49.70
2019-04-26T19:53:25.482Z,49.70
2019-04-26T19:56:17.455Z,49.70
2019-04-26T19:58:50.708Z,49.70
2019-04-26T20:01:24.591Z,49.80
2019-04-26T20:03:55.163Z,49.60
2019-04-26T20:06:23.326Z,49.60
2019-04-26T20:08:53.091Z,49.70
2019-04-26T20:11:23.937Z,49.60
2019-04-26T20:13:55.302Z,49.60
2019-04-26T20:16:25.958Z,49.60
2019-04-26T20:18:55.915Z,49.50
2019-04-26T20:21:25.618Z,49.60
2019-04-26T20:23:55.514Z,49.50
2019-04-26T20:26:25.292Z,49.40
2019-04-26T20:28:55.010Z,49.40
2019-04-26T20:31:29.281Z,49.40
2019-04-26T20:33:59.111Z,49.40
2019-04-26T20:36:28.890Z,49.40
2019-04-26T20:38:58.739Z,49.40
2019-04-26T20:41:28.621Z,49.30
2019-04-26T20:44:07.341Z,49.30
2019-04-26T20:46:33.753Z,49.40
2019-04-26T20:49:01.585Z,49.40
2019-04-26T20:51:32.684Z,49.30
2019-04-26T20:54:03.891Z,49.30
2019-04-26T20:56:33.786Z,49.30
2019-04-26T20:59:03.506Z,49.30
2019-04-26T21:01:33.273Z,49.30
2019-04-26T21:04:03.078Z,49.30
2019-04-26T21:06:33.846Z,49.30
2019-04-26T21:09:06.465Z,49.30
2019-04-26T21:11:38.429Z,49.30
2019-04-26T21:14:08.817Z,49.30
2019-04-26T21:16:43.642Z,49.20
2019-04-26T21:19:12.730Z,49.30
2019-04-26T21:21:48.316Z,49.20
2019-04-26T21:24:19.639Z,49.20
2019-04-26T21:26:51.364Z,49.20
2019-04-26T21:29:36.911Z,49.20
2019-04-26T21:32:20.270Z,49.20
2019-04-26T21:34:50.797Z,49.20
2019-04-26T21:37:23.135Z,49.30
2019-04-26T21:39:57.298Z,49.20
2019-04-26T21:42:27.019Z,49.30
2019-04-26T21:44:56.791Z,49.20
2019-04-26T21:47:27.629Z,49.10
2019-04-26T21:49:58.832Z,49.20
2019-04-26T21:52:29.459Z,49.10
2019-04-26T21:54:59.186Z,49.10
2019-04-26T21:57:31.642Z,49.10
2019-04-26T22:00:00.547Z,49.10
2019-04-26T22:02:36.080Z,49.10
2019-04-26T22:05:03.532Z,49.10
2019-04-26T22:07:35.128Z,49.10
2019-04-26T22:10:14.357Z,49.00
2019-04-26T22:12:45.076Z,49.00
2019-04-26T22:15:23.524Z,49.00
2019-04-26T22:17:54.996Z,49.00
2019-04-26T22:20:35.482Z,49.10
2019-04-26T22:23:16.341Z,49.00
2019-04-26T22:25:48.638Z,49.10
2019-04-26T22:28:18.386Z,49.10
2019-04-26T22:30:48.155Z,49.00
2019-04-26T22:33:18.033Z,49.00
2019-04-26T22:35:50.481Z,49.00
2019-04-26T22:38:23.738Z,49.00
2019-04-26T22:40:54.692Z,49.00
2019-04-26T22:43:26.935Z,49.70
2019-04-26T22:45:58.359Z,49.00
2019-04-26T22:48:29.685Z,49.00
2019-04-26T22:51:00.825Z,49.00
2019-04-26T22:53:30.558Z,49.00
2019-04-26T22:56:01.468Z,49.00
2019-04-26T22:58:31.678Z,49.00
2019-04-26T23:01:03.537Z,49.00
2019-04-26T23:03:36.624Z,49.00
2019-04-26T23:06:07.803Z,48.90
2019-04-26T23:08:38.202Z,48.90
2019-04-26T23:11:09.084Z,48.90
2019-04-26T23:13:53.678Z,48.90
2019-04-26T23:16:26.198Z,48.90
2019-04-26T23:19:00.353Z,48.80
2019-04-26T23:21:31.791Z,48.80
2019-04-26T23:24:01.552Z,48.80
2019-04-26T23:26:31.405Z,49.30
2019-04-26T23:29:01.225Z,48.80
2019-04-26T23:31:31.014Z,48.80
2019-04-26T23:34:00.787Z,48.80
2019-04-26T23:36:30.551Z,49.10
2019-04-26T23:39:03.259Z,48.80
2019-04-26T23:41:37.553Z,48.80
2019-04-26T23:44:06.730Z,48.90
2019-04-26T23:46:36.659Z,48.80
2019-04-26T23:49:06.302Z,48.70
2019-04-26T23:51:38.341Z,48.80
2019-04-26T23:54:07.467Z,48.60
2019-04-26T23:56:37.218Z,48.60
2019-04-26T23:59:06.974Z,48.70
